Time;durP1;ratioP1;P1;durP2;ratioP2;P2;SDS_P1;SDS_P2;PMS_P1;PMS_P2;Temp;Humidity;BMP_temperature;BMP_pressure;BME280_temperature;BME280_humidity;BME280_pressure;Samples;Min_cycle;Max_cycle;Signal;HPM_P1;HPM_P2
2021/10/02 00:37:56;;;;;;;31.58;17.77;;;;;;;;;;4388598;32;20260;-78
2021/10/02 00:44:59;;;;;;;24.75;16.25;;;;;;;;;;4421468;32;20474;-79
2021/10/02 00:47:34;;;;;;;21.62;15.25;;;;;;;;;;4421262;32;20570;-79
2021/10/02 00:50:22;;;;;;;27.30;15.95;;;;;;;;;;4421297;32;20214;-81
2021/10/02 00:52:48;;;;;;;25.80;14.85;;;;;;;;;;4419618;32;20150;-82
2021/10/02 00:58:17;;;;;;;33.70;17.58;;;;;;;;;;4422609;32;20157;-83
2021/10/02 01:00:45;;;;;;;35.53;18.15;;;;;;;;;;4437122;32;20152;-83
2021/10/02 01:07:28;;;;;;;;;;;;;;;;;;;;;
2021/10/02 01:10:12;;;;;;;35.70;20.88;;;;;;;;;;4291159;33;20148;-83
2021/10/02 01:12:56;;;;;;;33.92;19.65;;;;;;;;;;4397722;32;20507;-83
2021/10/02 01:15:29;;;;;;;29.58;17.12;;;;;;;;;;4396801;32;20165;-83
2021/10/02 01:18:29;;;;;;;30.88;16.85;;;;;;;;;;4405566;32;20172;-83
2021/10/02 01:21:24;;;;;;;29.42;16.95;;;;;;;;;;4375330;32;20211;-83
2021/10/02 01:24:16;;;;;;;27.67;16.95;;;;;;;;;;4405511;32;20146;-83
2021/10/02 01:30:33;;;;;;;;;;;;;;;;;;;;;
2021/10/02 01:47:38;;;;;;;24.80;12.35;;;;;;;;;;4420456;32;20215;-81
2021/10/02 01:50:26;;;;;;;20.52;12.27;;;;;;;;;;4406539;32;20189;-81
2021/10/02 01:52:56;;;;;;;20.27;11.05;;;;;;;;;;4422445;32;20153;-80
2021/10/02 01:55:40;;;;;;;16.50;10.13;;;;;;;;;;4434731;32;20150;-81
2021/10/02 02:01:29;;;;;;;19.12;10.20;;;;;;;;;;4421309;32;20196;-81
2021/10/02 02:04:19;;;;;;;19.85;9.38;;;;;;;;;;4357520;33;20169;-80
2021/10/02 02:06:49;;;;;;;24.98;13.70;;;;;;;;;;4403829;32;20162;-80
2021/10/02 02:09:18;;;;;;;27.13;14.55;;;;;;;;;;4391020;32;20200;-80
2021/10/02 02:12:06;;;;;;;33.28;17.20;;;;;;;;;;4405567;32;20256;-81
2021/10/02 02:17:39;;;;;;;37.28;19.73;;;;;;;;;;4343241;33;20182;-80
2021/10/02 02:20:07;;;;;;;43.72;22.25;;;;;;;;;;4391224;32;20149;-80
2021/10/02 02:22:36;;;;;;;44.17;22.52;;;;;;;;;;4414077;32;20169;-80
2021/10/02 02:25:05;;;;;;;45.42;24.08;;;;;;;;;;4420279;32;20586;-80
2021/10/02 02:27:30;;;;;;;53.83;26.58;;;;;;;;;;4419954;32;20139;-81
2021/10/02 02:29:59;;;;;;;52.53;24.30;;;;;;;;;;4391622;32;20166;-81
2021/10/02 02:32:33;;;;;;;53.78;23.85;;;;;;;;;;4406534;32;20160;-80
2021/10/02 02:35:06;;;;;;;53.08;25.62;;;;;;;;;;4408279;32;20160;-80
2021/10/02 02:37:32;;;;;;;53.65;25.30;;;;;;;;;;4408518;32;20146;-80
2021/10/02 02:40:07;;;;;;;;;;;;;;;;;;;;;
2021/10/02 02:45:45;;;;;;;;;;;;;;;;;;;;;
2021/10/02 02:48:13;;;;;;;57.10;26.37;;;;;;;;;;4423620;32;20130;-80
2021/10/02 02:50:50;;;;;;;59.85;26.83;;;;;;;;;;4422973;32;20550;-80
2021/10/02 02:53:37;;;;;;;68.57;29.58;;;;;;;;;;4422905;32;20199;-80
2021/10/02 02:56:25;;;;;;;62.95;25.50;;;;;;;;;;4396662;32;20228;-81
2021/10/02 02:58:51;;;;;;;81.87;30.10;;;;;;;;;;4409434;32;20591;-81
2021/10/02 03:01:19;;;;;;;60.40;27.13;;;;;;;;;;4422655;32;20569;-81
2021/10/02 03:03:54;;;;;;;69.93;26.83;;;;;;;;;;4422815;32;20138;-82
2021/10/02 03:06:24;;;;;;;64.93;26.17;;;;;;;;;;4426993;32;20149;-81
2021/10/02 03:10:12;;;;;;;;;;;;;;;;;;;;;
2021/10/02 03:12:10;;;;;;;63.63;26.73;;;;;;;;;;4415684;32;20506;-82
2021/10/02 03:14:48;;;;;;;66.22;26.15;;;;;;;;;;4408715;32;20650;-82
2021/10/02 03:20:14;;;;;;;;;;;;;;;;;;;;;
2021/10/02 03:22:59;;;;;;;87.80;29.95;;;;;;;;;;4409964;32;20176;-81
2021/10/02 03:29:25;;;;;;;79.20;29.37;;;;;;;;;;4359699;32;20213;-81
2021/10/02 03:31:50;;;;;;;86.07;29.50;;;;;;;;;;4352134;33;20179;-81
2021/10/02 03:37:56;;;;;;;71.90;27.83;;;;;;;;;;4301447;33;20166;-81
2021/10/02 03:40:32;;;;;;;70.60;27.98;;;;;;;;;;4301336;33;20213;-81
2021/10/02 03:43:13;;;;;;;74.10;26.33;;;;;;;;;;4355691;32;20171;-82
2021/10/02 03:45:47;;;;;;;84.13;27.80;;;;;;;;;;4359781;32;20139;-81
2021/10/02 03:57:44;;;;;;;91.12;29.48;;;;;;;;;;4286014;33;20195;-80
2021/10/02 04:00:55;;;;;;;;;;;;;;;;;;;;;
2021/10/02 04:03:40;;;;;;;;;;;;;;;;;;;;;
2021/10/02 04:06:30;;;;;;;95.05;31.67;;;;;;;;;;4325541;33;20183;-80
2021/10/02 04:15:38;;;;;;;80.57;29.33;;;;;;;;;;4300573;33;20182;-82
2021/10/02 04:18:03;;;;;;;93.93;32.67;;;;;;;;;;4272226;33;20733;-82
2021/10/02 04:20:31;;;;;;;90.65;31.50;;;;;;;;;;4284995;33;20253;-82
2021/10/02 04:22:56;;;;;;;82.53;31.20;;;;;;;;;;4291978;33;20428;-82
2021/10/02 04:25:32;;;;;;;;;;;;;;;;;;;;;
2021/10/02 04:31:05;;;;;;;97.03;34.30;;;;;;;;;;4269231;33;20615;-83
2021/10/02 04:40:12;;;;;;;111.88;34.15;;;;;;;;;;4300628;33;20159;-83
2021/10/02 04:46:12;;;;;;;85.85;30.70;;;;;;;;;;4302887;33;20183;-81
2021/10/02 04:49:17;;;;;;;;;;;;;;;;;;;;;
2021/10/02 04:52:04;;;;;;;93.65;31.37;;;;;;;;;;4329854;33;20179;-81
2021/10/02 04:54:42;;;;;;;;;;;;;;;;;;;;;
2021/10/02 04:57:42;;;;;;;76.93;28.70;;;;;;;;;;4361704;32;20172;-81
2021/10/02 05:00:08;;;;;;;102.68;33.75;;;;;;;;;;4390509;32;20138;-80
2021/10/02 05:02:36;;;;;;;69.57;29.60;;;;;;;;;;4376742;32;20204;-81
2021/10/02 05:05:01;;;;;;;80.40;30.67;;;;;;;;;;4376824;32;20166;-82
2021/10/02 05:07:55;;;;;;;81.12;31.05;;;;;;;;;;4390874;32;20130;-82
2021/10/02 05:10:24;;;;;;;84.13;31.50;;;;;;;;;;4390326;32;20170;-83
2021/10/02 05:12:58;;;;;;;90.47;29.30;;;;;;;;;;4406175;32;20126;-82
2021/10/02 05:15:34;;;;;;;80.40;30.12;;;;;;;;;;4405500;32;20649;-81
2021/10/02 05:18:00;;;;;;;79.60;31.30;;;;;;;;;;4420824;32;20148;-78
2021/10/02 05:20:25;;;;;;;92.93;34.58;;;;;;;;;;4407114;32;20166;-78
2021/10/02 05:22:53;;;;;;;85.22;33.15;;;;;;;;;;4405925;32;20127;-81
2021/10/02 05:25:22;;;;;;;90.38;33.78;;;;;;;;;;4392566;32;20202;-82
2021/10/02 05:27:57;;;;;;;93.20;33.15;;;;;;;;;;4411193;32;20172;-82
2021/10/02 05:30:23;;;;;;;95.20;36.88;;;;;;;;;;4413073;32;20189;-81
2021/10/02 05:32:51;;;;;;;125.55;41.03;;;;;;;;;;4406761;32;20185;-80
2021/10/02 05:35:16;;;;;;;91.00;35.63;;;;;;;;;;4413085;32;20166;-81
2021/10/02 05:37:48;;;;;;;94.90;36.78;;;;;;;;;;4405697;32;20197;-81
2021/10/02 05:40:26;;;;;;;;;;;;;;;;;;;;;
2021/10/02 05:42:52;;;;;;;101.57;39.53;;;;;;;;;;4403349;32;20200;-82
2021/10/02 05:45:18;;;;;;;107.18;39.50;;;;;;;;;;4405552;32;20540;-81
2021/10/02 05:47:46;;;;;;;106.37;41.13;;;;;;;;;;4405572;32;20154;-81
2021/10/02 05:50:11;;;;;;;101.03;37.83;;;;;;;;;;4404270;32;20169;-81
2021/10/02 05:52:43;;;;;;;83.62;37.13;;;;;;;;;;4391320;32;20178;-81
2021/10/02 05:55:11;;;;;;;92.97;39.00;;;;;;;;;;4400919;32;20541;-82
2021/10/02 05:57:48;;;;;;;95.25;39.30;;;;;;;;;;4420848;32;20137;-80
2021/10/02 06:00:14;;;;;;;96.28;40.10;;;;;;;;;;4417536;32;20149;-81
2021/10/02 06:02:52;;;;;;;92.68;39.97;;;;;;;;;;4422965;32;20195;-80
2021/10/02 06:05:17;;;;;;;94.95;39.45;;;;;;;;;;4433149;32;20141;-80
2021/10/02 06:07:42;;;;;;;103.65;42.13;;;;;;;;;;4439099;32;20470;-80
2021/10/02 06:10:10;;;;;;;99.95;43.40;;;;;;;;;;4439056;32;20198;-80
2021/10/02 06:12:43;;;;;;;110.65;44.15;;;;;;;;;;4438570;32;20167;-81
2021/10/02 06:15:10;;;;;;;80.80;39.83;;;;;;;;;;4438284;32;20168;-80
2021/10/02 06:17:36;;;;;;;77.18;37.22;;;;;;;;;;4423242;32;20130;-80
2021/10/02 06:20:01;;;;;;;91.40;38.67;;;;;;;;;;4423309;32;20475;-80
2021/10/02 06:22:26;;;;;;;76.97;37.17;;;;;;;;;;4423442;32;20134;-80
2021/10/02 06:24:54;;;;;;;86.43;39.35;;;;;;;;;;4422906;32;20164;-81
2021/10/02 06:27:19;;;;;;;77.50;38.15;;;;;;;;;;4421448;32;20157;-81
2021/10/02 06:35:36;;;;;;;83.80;38.22;;;;;;;;;;4408020;32;20156;-82
2021/10/02 06:38:02;;;;;;;66.70;31.37;;;;;;;;;;4409068;32;20122;-81
2021/10/02 06:40:53;;;;;;;78.43;33.50;;;;;;;;;;4408346;32;20138;-81
2021/10/02 06:43:19;;;;;;;63.45;31.17;;;;;;;;;;4405125;32;20587;-80
2021/10/02 06:45:44;;;;;;;63.28;31.50;;;;;;;;;;4408010;32;20184;-82
2021/10/02 06:48:11;;;;;;;69.70;30.50;;;;;;;;;;4393703;32;20161;-81
2021/10/02 06:50:37;;;;;;;59.45;28.50;;;;;;;;;;4407037;32;20150;-81
2021/10/02 06:53:04;;;;;;;68.03;31.92;;;;;;;;;;4407363;32;20158;-81
2021/10/02 06:55:44;;;;;;;56.78;27.85;;;;;;;;;;4407633;32;20150;-82
2021/10/02 06:58:12;;;;;;;57.45;27.67;;;;;;;;;;4408003;32;20156;-81
2021/10/02 07:00:40;;;;;;;45.90;24.73;;;;;;;;;;4407950;32;20165;-81
2021/10/02 07:03:14;;;;;;;50.67;26.60;;;;;;;;;;4414586;32;20138;-81
2021/10/02 07:05:40;;;;;;;48.95;25.67;;;;;;;;;;4407527;32;20137;-82
2021/10/02 07:08:06;;;;;;;45.67;24.12;;;;;;;;;;4407113;32;20602;-80
2021/10/02 07:10:33;;;;;;;43.63;23.65;;;;;;;;;;4400079;32;20201;-82
2021/10/02 07:12:59;;;;;;;41.92;23.35;;;;;;;;;;4393340;32;20246;-82
2021/10/02 07:15:24;;;;;;;51.17;24.12;;;;;;;;;;4407391;32;20134;-82
2021/10/02 07:17:50;;;;;;;41.63;24.12;;;;;;;;;;4406565;32;20142;-82
2021/10/02 07:20:31;;;;;;;42.70;22.75;;;;;;;;;;4407501;32;20134;-81
2021/10/02 07:22:56;;;;;;;53.92;26.00;;;;;;;;;;4393343;32;20224;-80
2021/10/02 07:25:57;;;;;;;43.67;24.48;;;;;;;;;;4406821;32;20209;-81
2021/10/02 07:28:23;;;;;;;49.33;25.88;;;;;;;;;;4401927;32;20285;-82
2021/10/02 07:30:48;;;;;;;41.08;22.23;;;;;;;;;;4407254;32;20539;-81
2021/10/02 07:33:13;;;;;;;41.55;21.00;;;;;;;;;;4397316;32;20185;-80
2021/10/02 07:35:39;;;;;;;33.60;20.35;;;;;;;;;;4422652;32;20131;-82
2021/10/02 07:38:06;;;;;;;38.25;18.27;;;;;;;;;;4423294;32;20220;-81
2021/10/02 07:40:43;;;;;;;30.30;17.75;;;;;;;;;;4422448;32;20212;-82
2021/10/02 07:43:13;;;;;;;30.65;16.60;;;;;;;;;;4396414;32;20212;-81
2021/10/02 07:45:45;;;;;;;30.62;17.05;;;;;;;;;;4393435;32;20234;-82
2021/10/02 07:48:14;;;;;;;28.12;16.25;;;;;;;;;;4407344;32;20478;-83
2021/10/02 07:50:40;;;;;;;28.55;16.65;;;;;;;;;;4406737;32;20146;-82
2021/10/02 07:53:17;;;;;;;;;;;;;;;;;;;;;
2021/10/02 07:55:45;;;;;;;27.13;15.65;;;;;;;;;;4406313;32;20227;-81
2021/10/02 07:58:10;;;;;;;24.35;13.05;;;;;;;;;;4406850;32;20160;-81
2021/10/02 08:00:36;;;;;;;25.27;15.05;;;;;;;;;;4406674;32;20131;-82
2021/10/02 08:03:01;;;;;;;25.12;12.15;;;;;;;;;;4406841;32;20622;-81
2021/10/02 08:05:26;;;;;;;25.08;11.95;;;;;;;;;;4425535;32;20490;-81
2021/10/02 08:07:52;;;;;;;24.52;9.63;;;;;;;;;;4433603;32;20208;-82
2021/10/02 08:10:26;;;;;;;17.70;9.32;;;;;;;;;;4428694;32;20498;-83
2021/10/02 08:13:00;;;;;;;18.55;10.05;;;;;;;;;;4407992;32;20164;-80
2021/10/02 08:15:26;;;;;;;18.60;10.88;;;;;;;;;;4408323;32;20195;-81
2021/10/02 08:17:53;;;;;;;21.05;11.52;;;;;;;;;;4421716;32;20145;-81
2021/10/02 08:20:19;;;;;;;21.87;12.50;;;;;;;;;;4420360;32;20444;-79
2021/10/02 08:22:47;;;;;;;24.23;13.07;;;;;;;;;;4407105;32;20192;-79
2021/10/02 08:25:13;;;;;;;21.65;12.98;;;;;;;;;;4418811;32;21009;-80
2021/10/02 08:27:39;;;;;;;21.95;12.88;;;;;;;;;;4420106;32;20141;-81
2021/10/02 08:30:05;;;;;;;26.02;13.13;;;;;;;;;;4420473;32;20547;-77
2021/10/02 08:32:31;;;;;;;23.67;12.85;;;;;;;;;;4432625;32;20158;-80
2021/10/02 08:34:58;;;;;;;22.40;12.52;;;;;;;;;;4436717;32;20134;-81
2021/10/02 08:37:24;;;;;;;21.35;12.35;;;;;;;;;;4426352;32;20501;-81
2021/10/02 08:39:49;;;;;;;22.45;10.52;;;;;;;;;;4421491;32;20221;-80
2021/10/02 08:42:22;;;;;;;17.58;9.57;;;;;;;;;;4404091;32;20464;-82
2021/10/02 08:44:50;;;;;;;17.83;9.45;;;;;;;;;;4420687;32;20138;-82
2021/10/02 08:47:16;;;;;;;14.15;8.70;;;;;;;;;;4420529;32;20520;-79
2021/10/02 08:49:45;;;;;;;20.23;8.38;;;;;;;;;;4427420;32;20141;-81
2021/10/02 08:52:12;;;;;;;14.20;7.30;;;;;;;;;;4423511;32;20150;-81
2021/10/02 08:54:43;;;;;;;15.32;6.57;;;;;;;;;;4421262;32;20220;-79
2021/10/02 08:57:17;;;;;;;11.12;6.10;;;;;;;;;;4420920;32;20221;-78
2021/10/02 08:59:42;;;;;;;12.15;6.85;;;;;;;;;;4421391;32;20126;-79
2021/10/02 09:02:10;;;;;;;13.02;7.12;;;;;;;;;;4420768;32;20165;-79
2021/10/02 09:04:44;;;;;;;11.93;6.70;;;;;;;;;;4421387;32;20125;-79
2021/10/02 09:07:12;;;;;;;14.13;6.50;;;;;;;;;;4421698;32;20179;-79
2021/10/02 09:09:38;;;;;;;12.30;6.68;;;;;;;;;;4420359;32;20150;-78
2021/10/02 09:12:05;;;;;;;14.77;7.22;;;;;;;;;;4420904;32;20185;-78
2021/10/02 09:14:32;;;;;;;12.80;7.78;;;;;;;;;;4420781;32;20191;-79
2021/10/02 09:19:59;;;;;;;17.45;8.43;;;;;;;;;;4406780;32;20185;-78
2021/10/02 09:22:30;;;;;;;14.77;8.50;;;;;;;;;;4421171;32;20187;-79
2021/10/02 09:24:58;;;;;;;21.37;10.10;;;;;;;;;;4421389;32;20135;-79
2021/10/02 09:27:31;;;;;;;17.23;10.38;;;;;;;;;;4419620;32;20191;-78
2021/10/02 09:30:08;;;;;;;17.30;10.48;;;;;;;;;;4406880;32;20185;-78
2021/10/02 09:32:38;;;;;;;15.60;10.27;;;;;;;;;;4410894;32;20169;-78
2021/10/02 09:35:07;;;;;;;23.35;11.88;;;;;;;;;;4408541;32;20257;-77
2021/10/02 09:37:37;;;;;;;20.73;10.68;;;;;;;;;;4426110;32;20145;-79
2021/10/02 09:40:22;;;;;;;21.05;11.27;;;;;;;;;;4429900;32;20543;-78
2021/10/02 09:42:56;;;;;;;24.55;11.02;;;;;;;;;;4418586;32;20207;-78
2021/10/02 09:45:51;;;;;;;21.85;11.32;;;;;;;;;;4421438;32;20134;-78
2021/10/02 09:48:38;;;;;;;19.48;12.52;;;;;;;;;;4404398;32;20237;-78
2021/10/02 09:51:05;;;;;;;21.90;11.05;;;;;;;;;;4394968;32;20260;-78
2021/10/02 09:53:36;;;;;;;18.48;11.30;;;;;;;;;;4419173;32;20138;-78
2021/10/02 09:56:18;;;;;;;19.87;11.52;;;;;;;;;;4402289;32;20227;-79
2021/10/02 09:58:44;;;;;;;19.12;10.70;;;;;;;;;;4405671;32;20201;-78
2021/10/02 10:01:22;;;;;;;17.08;9.20;;;;;;;;;;4419946;32;20220;-77
2021/10/02 10:03:48;;;;;;;20.33;10.07;;;;;;;;;;4404315;32;20134;-78
2021/10/02 10:06:29;;;;;;;18.37;9.00;;;;;;;;;;4407378;32;20169;-77
2021/10/02 10:09:08;;;;;;;17.05;9.05;;;;;;;;;;4424694;32;20220;-78
2021/10/02 10:12:02;;;;;;;15.35;8.35;;;;;;;;;;4434816;32;20670;-79
2021/10/02 10:14:28;;;;;;;15.52;8.30;;;;;;;;;;4418898;32;20236;-77
2021/10/02 10:16:57;;;;;;;19.65;10.23;;;;;;;;;;4430026;32;20622;-77
2021/10/02 10:19:31;;;;;;;19.25;8.50;;;;;;;;;;4404778;32;20157;-77
2021/10/02 10:22:08;;;;;;;18.05;9.27;;;;;;;;;;4404727;32;20164;-77
2021/10/02 10:24:36;;;;;;;18.33;9.43;;;;;;;;;;4404808;32;20203;-78
2021/10/02 10:27:02;;;;;;;18.90;9.60;;;;;;;;;;4417853;32;20146;-79
2021/10/02 10:30:01;;;;;;;17.35;9.27;;;;;;;;;;4419353;32;20199;-77
2021/10/02 10:32:26;;;;;;;17.92;10.25;;;;;;;;;;4419450;32;20207;-77
2021/10/02 10:35:09;;;;;;;22.15;10.43;;;;;;;;;;4406317;32;20169;-77
2021/10/02 10:37:37;;;;;;;16.25;9.05;;;;;;;;;;4419789;32;20175;-78
2021/10/02 10:40:03;;;;;;;19.15;9.25;;;;;;;;;;4420050;32;20563;-78
2021/10/02 10:42:48;;;;;;;;;;;;;;;;;;;;;
2021/10/02 10:45:23;;;;;;;14.57;9.02;;;;;;;;;;4419489;32;20193;-78
2021/10/02 10:48:00;;;;;;;15.70;9.13;;;;;;;;;;4419492;32;20125;-77
2021/10/02 10:50:25;;;;;;;11.63;8.32;;;;;;;;;;4420432;32;20145;-76
2021/10/02 10:52:51;;;;;;;16.75;9.27;;;;;;;;;;4435978;32;20130;-78
2021/10/02 10:55:18;;;;;;;12.07;7.97;;;;;;;;;;4425219;32;20172;-77
2021/10/02 10:57:47;;;;;;;12.90;8.05;;;;;;;;;;4406418;32;20266;-76
2021/10/02 11:00:13;;;;;;;16.52;8.05;;;;;;;;;;4420147;32;20591;-76
2021/10/02 11:02:44;;;;;;;12.45;7.93;;;;;;;;;;4419353;32;20191;-77
2021/10/02 11:05:28;;;;;;;12.00;7.10;;;;;;;;;;4407165;32;20552;-76
2021/10/02 11:07:54;;;;;;;12.60;7.10;;;;;;;;;;4407119;32;20192;-76
2021/10/02 11:10:38;;;;;;;12.80;7.03;;;;;;;;;;4407057;32;20165;-77
2021/10/02 11:13:05;;;;;;;10.30;7.03;;;;;;;;;;4431795;32;20581;-76
2021/10/02 11:15:30;;;;;;;17.40;7.85;;;;;;;;;;4432966;32;20176;-77
2021/10/02 11:17:56;;;;;;;12.73;7.65;;;;;;;;;;4428105;32;20146;-77
2021/10/02 11:21:00;;;;;;;13.40;7.20;;;;;;;;;;4418822;32;20614;-77
2021/10/02 11:23:45;;;;;;;9.45;6.68;;;;;;;;;;4357492;32;20201;-78
2021/10/02 11:26:26;;;;;;;13.38;6.55;;;;;;;;;;4356004;32;20167;-77
2021/10/02 11:28:57;;;;;;;9.35;4.78;;;;;;;;;;4398592;32;20568;-77
2021/10/02 11:31:32;;;;;;;8.82;6.57;;;;;;;;;;4424015;32;20205;-78
2021/10/02 11:34:16;;;;;;;10.82;5.00;;;;;;;;;;4398025;32;20272;-77
2021/10/02 11:36:56;;;;;;;11.82;4.78;;;;;;;;;;4404453;32;20615;-78
2021/10/02 11:39:29;;;;;;;11.23;4.80;;;;;;;;;;4422166;32;20204;-77
2021/10/02 11:42:18;;;;;;;9.27;4.40;;;;;;;;;;4419086;32;20563;-77
2021/10/02 11:45:01;;;;;;;8.68;4.47;;;;;;;;;;4414455;32;20200;-77
2021/10/02 11:53:13;;;;;;;8.18;4.10;;;;;;;;;;4355127;32;20158;-76
2021/10/02 11:55:41;;;;;;;7.80;4.30;;;;;;;;;;4377051;32;20256;-77
2021/10/02 11:58:12;;;;;;;8.48;3.72;;;;;;;;;;4374314;32;20181;-76
2021/10/02 12:00:43;;;;;;;7.90;3.70;;;;;;;;;;4378108;32;20178;-78
2021/10/02 12:03:08;;;;;;;11.10;3.97;;;;;;;;;;4416079;32;20597;-77
2021/10/02 12:05:34;;;;;;;8.57;3.22;;;;;;;;;;4420176;32;20153;-76
2021/10/02 12:08:18;;;;;;;8.40;2.90;;;;;;;;;;4419133;32;20299;-80
2021/10/02 12:11:07;;;;;;;7.78;3.42;;;;;;;;;;4436159;32;20189;-76
2021/10/02 12:13:33;;;;;;;10.40;3.17;;;;;;;;;;4429375;32;20220;-79
2021/10/02 12:16:00;;;;;;;8.07;3.80;;;;;;;;;;4432733;32;20195;-78
2021/10/02 12:18:48;;;;;;;10.85;3.65;;;;;;;;;;4421325;32;20195;-79
2021/10/02 12:21:18;;;;;;;7.47;3.75;;;;;;;;;;4420837;32;20219;-78
2021/10/02 12:24:02;;;;;;;9.52;3.75;;;;;;;;;;4417036;32;20216;-75
2021/10/02 12:26:29;;;;;;;6.45;3.40;;;;;;;;;;4412723;32;20161;-77
2021/10/02 12:29:04;;;;;;;8.02;4.10;;;;;;;;;;4428266;32;20192;-77
2021/10/02 12:31:50;;;;;;;8.98;3.65;;;;;;;;;;4436776;32;20142;-78
2021/10/02 12:34:24;;;;;;;7.05;3.37;;;;;;;;;;4428564;32;20187;-77
2021/10/02 12:36:52;;;;;;;8.18;4.20;;;;;;;;;;4406777;32;20180;-78
2021/10/02 12:39:32;;;;;;;8.10;3.75;;;;;;;;;;4405964;32;20253;-77
2021/10/02 12:41:58;;;;;;;9.52;3.28;;;;;;;;;;4410044;32;20208;-78
2021/10/02 12:44:25;;;;;;;5.78;2.95;;;;;;;;;;4420930;32;20169;-79
2021/10/02 12:47:03;;;;;;;6.70;3.08;;;;;;;;;;4415238;32;20157;-78
2021/10/02 12:49:32;;;;;;;8.85;3.42;;;;;;;;;;4418626;32;20188;-77
2021/10/02 12:52:02;;;;;;;6.47;3.10;;;;;;;;;;4405980;32;20165;-78
2021/10/02 12:54:28;;;;;;;6.40;3.42;;;;;;;;;;4392322;32;20219;-77
2021/10/02 12:57:10;;;;;;;9.30;4.60;;;;;;;;;;4391467;32;20197;-77
2021/10/02 13:00:07;;;;;;;;;;;;;;;;;;;;;
2021/10/02 13:02:36;;;;;;;8.75;4.10;;;;;;;;;;4405826;32;20146;-77
2021/10/02 13:05:05;;;;;;;8.98;3.62;;;;;;;;;;4405693;32;20146;-77
2021/10/02 13:07:32;;;;;;;8.13;3.75;;;;;;;;;;4406221;32;20131;-76
2021/10/02 13:09:58;;;;;;;11.18;3.92;;;;;;;;;;4405761;32;20149;-78
2021/10/02 13:12:28;;;;;;;10.88;4.75;;;;;;;;;;4403912;32;20234;-78
2021/10/02 13:14:55;;;;;;;8.13;3.90;;;;;;;;;;4414456;32;20229;-78
2021/10/02 13:17:29;;;;;;;8.30;4.18;;;;;;;;;;4420786;32;20161;-78
2021/10/02 13:20:12;;;;;;;7.25;3.10;;;;;;;;;;4420909;32;20130;-78
2021/10/02 13:22:48;;;;;;;5.12;3.20;;;;;;;;;;4412794;32;20142;-78
2021/10/02 13:25:17;;;;;;;6.22;3.60;;;;;;;;;;4405068;32;20187;-79
2021/10/02 13:27:43;;;;;;;7.03;3.60;;;;;;;;;;4391406;32;20510;-78
2021/10/02 13:30:19;;;;;;;6.55;3.12;;;;;;;;;;4411138;32;20145;-77
2021/10/02 13:33:10;;;;;;;6.37;3.10;;;;;;;;;;4420520;32;20169;-78
2021/10/02 13:35:52;;;;;;;7.70;2.97;;;;;;;;;;4402991;32;20161;-77
2021/10/02 13:38:28;;;;;;;5.55;3.10;;;;;;;;;;4419750;32;20153;-77
2021/10/02 13:41:49;;;;;;;5.65;2.85;;;;;;;;;;4420691;32;20200;-77
2021/10/02 13:44:33;;;;;;;7.00;3.50;;;;;;;;;;4329220;33;20207;-77
2021/10/02 13:47:01;;;;;;;5.68;3.28;;;;;;;;;;4405158;32;20595;-77
2021/10/02 13:49:29;;;;;;;6.70;2.95;;;;;;;;;;4405411;32;20157;-78
2021/10/02 13:52:00;;;;;;;6.70;3.65;;;;;;;;;;4405277;32;20195;-78
2021/10/02 13:54:47;;;;;;;6.70;3.62;;;;;;;;;;4406383;32;20153;-78
2021/10/02 13:57:30;;;;;;;8.63;4.20;;;;;;;;;;4404074;32;20153;-78
2021/10/02 13:59:56;;;;;;;6.82;3.72;;;;;;;;;;4405197;32;20205;-78
2021/10/02 14:02:21;;;;;;;8.05;3.65;;;;;;;;;;4391463;32;20505;-80
2021/10/02 14:04:46;;;;;;;7.15;4.20;;;;;;;;;;4405407;32;20142;-78
2021/10/02 14:07:12;;;;;;;7.90;4.28;;;;;;;;;;4405170;32;20434;-77
2021/10/02 14:09:37;;;;;;;11.00;4.28;;;;;;;;;;4405210;32;20513;-78
2021/10/02 14:12:03;;;;;;;8.23;4.60;;;;;;;;;;4405319;32;20138;-79
2021/10/02 14:14:40;;;;;;;10.50;4.47;;;;;;;;;;4405059;32;20556;-78
2021/10/02 14:17:05;;;;;;;6.35;4.30;;;;;;;;;;4407298;32;20222;-79
2021/10/02 14:19:31;;;;;;;9.95;5.28;;;;;;;;;;4418020;32;20146;-78
2021/10/02 14:21:56;;;;;;;8.10;4.60;;;;;;;;;;4408411;32;20199;-78
2021/10/02 14:24:21;;;;;;;9.45;4.62;;;;;;;;;;4429906;32;20210;-81
2021/10/02 14:26:47;;;;;;;9.97;4.57;;;;;;;;;;4405999;32;20520;-78
2021/10/02 14:29:12;;;;;;;6.87;4.28;;;;;;;;;;4407477;32;20226;-81
2021/10/02 14:31:38;;;;;;;8.93;4.03;;;;;;;;;;4408107;32;20130;-79
2021/10/02 14:34:07;;;;;;;8.43;3.80;;;;;;;;;;4408203;32;20571;-79
2021/10/02 14:36:34;;;;;;;7.78;4.07;;;;;;;;;;4407084;32;20627;-79
2021/10/02 14:38:59;;;;;;;8.48;4.03;;;;;;;;;;4393813;32;20472;-80
2021/10/02 14:41:32;;;;;;;7.53;3.92;;;;;;;;;;4407921;32;20217;-79
2021/10/02 14:43:57;;;;;;;8.35;3.28;;;;;;;;;;4393438;32;20158;-78
2021/10/02 14:46:23;;;;;;;7.70;4.15;;;;;;;;;;4409849;32;20176;-79
2021/10/02 14:49:02;;;;;;;6.10;3.47;;;;;;;;;;4422585;32;20165;-80
2021/10/02 14:51:28;;;;;;;4.37;3.37;;;;;;;;;;4423100;32;20173;-80
2021/10/02 14:53:54;;;;;;;6.82;3.75;;;;;;;;;;4434272;32;20145;-80
2021/10/02 14:56:30;;;;;;;8.82;4.43;;;;;;;;;;4413815;32;20165;-80
2021/10/02 14:58:58;;;;;;;8.35;3.75;;;;;;;;;;4433124;32;20206;-81
2021/10/02 15:01:24;;;;;;;7.12;4.00;;;;;;;;;;4398538;32;20588;-79
2021/10/02 15:03:52;;;;;;;10.55;5.80;;;;;;;;;;4392436;32;20165;-80
2021/10/02 15:06:17;;;;;;;11.12;5.62;;;;;;;;;;4397401;32;20142;-80
2021/10/02 15:08:46;;;;;;;9.50;5.82;;;;;;;;;;4410972;32;20196;-80
2021/10/02 15:11:11;;;;;;;9.48;4.55;;;;;;;;;;4416588;32;20248;-81
2021/10/02 15:13:43;;;;;;;9.82;3.87;;;;;;;;;;4407130;32;20510;-81
2021/10/02 15:16:09;;;;;;;10.48;4.70;;;;;;;;;;4407160;32;20180;-80
2021/10/02 15:18:34;;;;;;;10.57;4.90;;;;;;;;;;4393118;32;20166;-80
2021/10/02 15:21:12;;;;;;;8.70;4.90;;;;;;;;;;4407110;32;20139;-79
2021/10/02 15:23:46;;;;;;;7.05;4.03;;;;;;;;;;4392969;32;20630;-81
2021/10/02 15:26:14;;;;;;;6.03;3.78;;;;;;;;;;4407263;32;20232;-81
2021/10/02 15:28:41;;;;;;;5.32;3.72;;;;;;;;;;4408100;32;20524;-82
2021/10/02 15:31:06;;;;;;;6.53;3.40;;;;;;;;;;4422642;32;20171;-81
2021/10/02 15:33:32;;;;;;;4.95;3.03;;;;;;;;;;4422378;32;20134;-81
2021/10/02 15:36:01;;;;;;;8.88;3.67;;;;;;;;;;4409131;32;20146;-81
2021/10/02 15:38:27;;;;;;;6.25;3.75;;;;;;;;;;4392690;32;20491;-80
2021/10/02 15:40:56;;;;;;;9.00;5.45;;;;;;;;;;4406251;32;20150;-80
2021/10/02 15:43:21;;;;;;;11.80;5.28;;;;;;;;;;4407221;32;20711;-80
2021/10/02 15:45:47;;;;;;;6.53;2.50;;;;;;;;;;4421447;32;20157;-81
2021/10/02 15:48:17;;;;;;;4.10;2.45;;;;;;;;;;4425432;32;20138;-80
2021/10/02 15:50:50;;;;;;;4.62;2.75;;;;;;;;;;4431943;32;20617;-80
2021/10/02 15:53:19;;;;;;;4.97;2.08;;;;;;;;;;4436657;32;20643;-79
2021/10/02 15:55:50;;;;;;;7.10;2.47;;;;;;;;;;4436808;32;20177;-74
2021/10/02 15:58:35;;;;;;;;;;;;;;;;;;;;;
2021/10/02 16:01:05;;;;;;;4.87;1.67;;;;;;;;;;4418847;32;20173;-80
2021/10/02 16:03:40;;;;;;;4.62;1.87;;;;;;;;;;4409200;32;20138;-79
2021/10/02 16:06:10;;;;;;;2.60;1.55;;;;;;;;;;4418610;32;20561;-80
2021/10/02 16:08:41;;;;;;;4.72;1.70;;;;;;;;;;4423390;32;20155;-79
2021/10/02 16:11:18;;;;;;;5.87;1.60;;;;;;;;;;4435436;32;20158;-80
2021/10/02 16:13:49;;;;;;;6.57;1.90;;;;;;;;;;4437227;32;20532;-81
2021/10/02 16:16:14;;;;;;;6.37;2.78;;;;;;;;;;4437037;32;20165;-79
2021/10/02 16:18:39;;;;;;;6.57;2.00;;;;;;;;;;4436588;32;20183;-80
2021/10/02 16:21:10;;;;;;;6.43;2.10;;;;;;;;;;4430542;32;20139;-80
2021/10/02 16:23:36;;;;;;;4.32;2.10;;;;;;;;;;4425741;32;20180;-81
2021/10/02 16:26:02;;;;;;;5.50;2.45;;;;;;;;;;4420935;32;20182;-80
2021/10/02 16:28:31;;;;;;;5.53;2.22;;;;;;;;;;4421641;32;20206;-80
2021/10/02 16:31:02;;;;;;;9.65;2.95;;;;;;;;;;4419622;32;20168;-79
2021/10/02 16:33:27;;;;;;;8.27;3.28;;;;;;;;;;4426470;32;20153;-81
2021/10/02 16:35:58;;;;;;;3.62;2.50;;;;;;;;;;4417965;32;20153;-81
2021/10/02 16:38:34;;;;;;;5.82;2.37;;;;;;;;;;4402847;32;20205;-80
2021/10/02 16:40:59;;;;;;;4.90;2.10;;;;;;;;;;4422817;32;20149;-80
2021/10/02 16:43:31;;;;;;;4.70;2.17;;;;;;;;;;4421233;32;20531;-80
2021/10/02 16:45:57;;;;;;;6.12;2.00;;;;;;;;;;4421079;32;20161;-79
2021/10/02 16:48:24;;;;;;;5.00;2.28;;;;;;;;;;4420207;32;20150;-80
2021/10/02 16:50:50;;;;;;;7.25;2.40;;;;;;;;;;4419299;32;20154;-81
2021/10/02 16:53:16;;;;;;;4.93;2.08;;;;;;;;;;4420145;32;20164;-81
2021/10/02 16:55:52;;;;;;;7.97;2.12;;;;;;;;;;4406139;32;20229;-82
2021/10/02 16:58:30;;;;;;;5.18;2.30;;;;;;;;;;4419855;32;20138;-79
2021/10/02 17:01:05;;;;;;;5.57;2.75;;;;;;;;;;4420614;32;20161;-81
2021/10/02 17:03:40;;;;;;;6.28;1.98;;;;;;;;;;4415637;32;20169;-81
2021/10/02 17:06:11;;;;;;;3.87;1.98;;;;;;;;;;4406195;32;20129;-81
2021/10/02 17:08:36;;;;;;;4.78;1.90;;;;;;;;;;4405882;32;20135;-81
2021/10/02 17:11:02;;;;;;;6.28;2.17;;;;;;;;;;4405501;32;20434;-81
2021/10/02 17:13:35;;;;;;;6.60;2.40;;;;;;;;;;4405602;32;20127;-81
2021/10/02 17:16:05;;;;;;;5.87;2.72;;;;;;;;;;4415909;32;20164;-81
2021/10/02 17:18:37;;;;;;;6.03;2.65;;;;;;;;;;4406905;32;20206;-81
2021/10/02 17:21:12;;;;;;;7.40;2.40;;;;;;;;;;4421039;32;20126;-83
2021/10/02 17:23:46;;;;;;;7.20;2.53;;;;;;;;;;4414062;32;20133;-83